Alton, Utah
Current Conditions -  °F | °C
As of 2:53 PM on Friday 24 Oct 2014 (Local Time) from KBCE Reporting Station
Clear Clear  
Wind Chill: 67°   Ceiling: Unl
Heat Index: 67°   Visibility: 10mi
Dew Point: 33°   Wind: 14mph
Humidity: 28%   Direction: 160°SSE
Pressure: 30.36"   Gusts: 18mph
Location:  37.44°N, 112.48°W
Report Text: KBCE 242053Z AUTO 16012G16KT 10SM CLR 19/01 A3036 RMK AO2 SLP206 T01940006 56018 TSNO
Loading
Personal Weather Stations






























Interactive Weather Map New forecast layout! Learn more

10-Day Weather Forecast

Advertisements
Track Severe Weather on mobile